createdAt,value
2022-11-19T00:01:07.084Z,4.20
2022-11-19T00:03:39.408Z,4.10
2022-11-19T00:06:13.032Z,4.97
2022-11-19T00:08:44.265Z,4.77
2022-11-19T00:11:39.628Z,4.87
2022-11-19T00:14:08.078Z,4.20
2022-11-19T00:16:38.744Z,5.00
2022-11-19T00:19:09.490Z,4.37
2022-11-19T00:21:39.645Z,5.10
2022-11-19T00:24:12.376Z,4.77
2022-11-19T00:26:45.173Z,5.07
2022-11-19T00:29:18.122Z,5.70
2022-11-19T00:31:48.705Z,3.67
2022-11-19T00:34:18.767Z,3.27
2022-11-19T00:36:49.047Z,3.03
2022-11-19T00:39:20.822Z,2.60
2022-11-19T00:41:53.820Z,2.87
2022-11-19T00:44:23.882Z,2.60
2022-11-19T00:46:53.924Z,3.07
2022-11-19T00:49:24.017Z,2.23
2022-11-19T00:51:55.449Z,3.03
2022-11-19T00:54:25.688Z,3.03
2022-11-19T00:56:58.612Z,4.50
2022-11-19T00:59:28.908Z,4.10
2022-11-19T01:01:58.985Z,3.70
2022-11-19T01:04:29.413Z,3.60
2022-11-19T01:06:59.607Z,4.27
2022-11-19T01:09:29.966Z,3.37
2022-11-19T01:12:02.600Z,3.20
2022-11-19T01:14:32.640Z,2.97
2022-11-19T01:17:02.673Z,3.50
2022-11-19T01:19:32.855Z,2.77
2022-11-19T01:22:02.988Z,2.90
2022-11-19T01:24:33.224Z,3.03
2022-11-19T01:27:05.902Z,2.70
2022-11-19T01:29:35.904Z,3.00
2022-11-19T01:32:06.223Z,2.90
2022-11-19T01:34:36.266Z,3.60
2022-11-19T01:37:06.447Z,3.27
2022-11-19T01:39:36.584Z,2.63
2022-11-19T01:42:29.470Z,2.77
2022-11-19T01:45:09.290Z,2.10
2022-11-19T01:47:39.392Z,2.60
2022-11-19T01:50:10.329Z,2.47
2022-11-19T01:52:41.457Z,3.27
2022-11-19T01:55:13.032Z,2.93
2022-11-19T01:57:45.894Z,2.73
2022-11-19T02:00:18.417Z,3.50
2022-11-19T02:02:48.513Z,2.90
2022-11-19T02:05:19.740Z,3.33
2022-11-19T02:07:58.668Z,3.33
2022-11-19T02:10:41.153Z,2.70
2022-11-19T02:13:26.555Z,3.47
2022-11-19T02:16:07.409Z,3.13
2022-11-19T02:18:53.448Z,3.10
2022-11-19T02:21:36.295Z,3.43
2022-11-19T02:24:41.668Z,3.27
2022-11-19T02:27:53.420Z,3.50
2022-11-19T02:30:26.535Z,3.03
2022-11-19T02:33:07.290Z,3.97
2022-11-19T02:35:53.893Z,3.80
2022-11-19T02:38:37.248Z,3.53
2022-11-19T02:41:36.969Z,3.00
2022-11-19T02:44:31.330Z,3.63
2022-11-19T02:47:08.508Z,3.60
2022-11-19T02:49:44.553Z,4.20
2022-11-19T02:52:17.334Z,4.23
2022-11-19T02:54:47.710Z,3.53
2022-11-19T02:57:17.981Z,3.30
2022-11-19T03:00:09.404Z,3.60
2022-11-19T03:03:01.369Z,4.00
2022-11-19T03:05:38.124Z,3.93
2022-11-19T03:08:09.448Z,3.83
2022-11-19T03:10:51.713Z,3.70
2022-11-19T03:13:39.496Z,3.03
2022-11-19T03:16:29.428Z,4.03
2022-11-19T03:19:10.536Z,3.00
2022-11-19T03:21:46.519Z,3.23
2022-11-19T03:24:22.212Z,3.17
2022-11-19T03:27:00.715Z,3.30
2022-11-19T03:29:37.464Z,3.00
2022-11-19T03:32:14.093Z,2.63
2022-11-19T03:34:51.527Z,3.70
2022-11-19T03:37:28.071Z,3.27
2022-11-19T03:40:03.275Z,3.33
2022-11-19T03:42:34.211Z,4.13
2022-11-19T03:45:12.042Z,2.60
2022-11-19T03:47:46.890Z,3.13
2022-11-19T03:50:26.816Z,3.10
2022-11-19T03:53:02.751Z,3.40
2022-11-19T03:55:40.761Z,3.57
2022-11-19T03:58:14.562Z,3.13
2022-11-19T04:00:44.866Z,4.20
2022-11-19T04:03:15.179Z,3.90
2022-11-19T04:05:47.786Z,2.83
2022-11-19T04:08:18.113Z,4.13
2022-11-19T04:10:48.120Z,3.37
2022-11-19T04:13:18.288Z,2.83
2022-11-19T04:15:48.517Z,3.07
2022-11-19T04:18:18.578Z,3.30
2022-11-19T04:20:51.466Z,3.73
2022-11-19T04:23:21.441Z,3.77
2022-11-19T04:25:51.399Z,3.87
2022-11-19T04:28:21.492Z,3.07
2022-11-19T04:30:51.552Z,3.20
2022-11-19T04:33:21.634Z,3.50
2022-11-19T04:35:54.281Z,2.60
2022-11-19T04:38:24.382Z,3.13
2022-11-19T04:40:54.380Z,2.70
2022-11-19T04:43:24.484Z,2.33
2022-11-19T04:45:54.533Z,2.67
2022-11-19T04:48:24.564Z,3.00
2022-11-19T04:50:57.264Z,2.70
2022-11-19T04:53:27.287Z,4.03
2022-11-19T04:55:57.315Z,3.27
2022-11-19T04:58:27.408Z,2.50
2022-11-19T05:00:57.453Z,3.47
2022-11-19T05:03:27.736Z,3.67
2022-11-19T05:06:00.490Z,3.50
2022-11-19T05:08:30.578Z,2.70
2022-11-19T05:11:00.696Z,3.57
2022-11-19T05:13:30.757Z,4.03
2022-11-19T05:16:00.821Z,3.63
2022-11-19T05:18:30.890Z,3.43
2022-11-19T05:21:03.528Z,4.00
2022-11-19T05:23:33.515Z,3.20
2022-11-19T05:26:03.608Z,3.00
2022-11-19T05:28:38.925Z,4.00
2022-11-19T05:31:10.227Z,3.70
2022-11-19T05:33:40.335Z,3.30
2022-11-19T05:36:13.380Z,4.30
2022-11-19T05:38:43.820Z,3.33
2022-11-19T05:41:14.108Z,4.73
2022-11-19T05:43:44.234Z,3.40
2022-11-19T05:46:14.353Z,3.40
2022-11-19T05:48:44.389Z,3.77
2022-11-19T05:51:19.559Z,3.33
2022-11-19T05:53:49.774Z,3.77
2022-11-19T05:56:19.891Z,3.83
2022-11-19T05:58:49.941Z,4.23
2022-11-19T06:01:27.805Z,4.83
2022-11-19T06:03:58.626Z,4.30
2022-11-19T06:06:31.312Z,4.60
2022-11-19T06:09:01.326Z,4.20
2022-11-19T06:11:44.012Z,3.57
2022-11-19T06:14:14.096Z,3.70
2022-11-19T06:16:44.296Z,3.20
2022-11-19T06:19:14.760Z,3.83
2022-11-19T06:21:47.451Z,3.60
2022-11-19T06:24:18.021Z,3.40
2022-11-19T06:26:48.271Z,3.47
2022-11-19T06:29:20.983Z,2.73
2022-11-19T06:31:51.207Z,2.60
2022-11-19T06:34:21.307Z,3.10
2022-11-19T06:36:53.923Z,2.50
2022-11-19T06:39:23.933Z,2.73
2022-11-19T06:41:53.982Z,2.80
2022-11-19T06:44:24.758Z,3.17
2022-11-19T06:46:54.799Z,3.20
2022-11-19T06:49:25.227Z,3.00
2022-11-19T06:51:58.132Z,3.20
2022-11-19T06:54:28.155Z,3.17
2022-11-19T06:56:58.216Z,3.27
2022-11-19T06:59:28.224Z,3.50
2022-11-19T07:01:58.427Z,4.00
2022-11-19T07:04:28.484Z,3.80
2022-11-19T07:07:01.196Z,3.10
2022-11-19T07:09:31.276Z,3.50
2022-11-19T07:12:01.364Z,4.90
2022-11-19T07:14:31.409Z,3.77
2022-11-19T07:17:01.441Z,3.10
2022-11-19T07:19:31.674Z,3.43
2022-11-19T07:22:04.386Z,3.47
2022-11-19T07:24:34.436Z,3.97
2022-11-19T07:27:04.556Z,4.20
2022-11-19T07:29:34.689Z,4.80
2022-11-19T07:32:04.719Z,4.80
2022-11-19T07:34:34.772Z,4.57
2022-11-19T07:37:07.569Z,4.20
2022-11-19T07:39:37.606Z,4.70
2022-11-19T07:42:20.255Z,4.57
2022-11-19T07:44:55.487Z,4.30
2022-11-19T07:47:25.542Z,5.20
2022-11-19T07:49:55.560Z,4.93
2022-11-19T07:52:28.436Z,4.30
2022-11-19T07:54:58.641Z,4.80
2022-11-19T07:57:30.462Z,3.33
2022-11-19T08:00:00.818Z,3.40
2022-11-19T08:02:30.828Z,4.03
2022-11-19T08:05:00.906Z,3.90
2022-11-19T08:07:33.687Z,4.10
2022-11-19T08:10:03.765Z,4.40
2022-11-19T08:12:33.771Z,3.60
2022-11-19T08:15:03.792Z,3.97
2022-11-19T08:17:46.917Z,2.90
2022-11-19T08:20:18.256Z,2.90
2022-11-19T08:22:50.893Z,4.00
2022-11-19T08:25:20.991Z,3.10
2022-11-19T08:27:51.013Z,3.67
2022-11-19T08:30:21.193Z,3.93
2022-11-19T08:32:51.215Z,2.80
2022-11-19T08:35:21.306Z,2.70
2022-11-19T08:37:54.228Z,3.10
2022-11-19T08:40:24.325Z,3.57
2022-11-19T08:43:01.326Z,3.40
2022-11-19T08:45:35.000Z,3.40
2022-11-19T08:48:12.188Z,3.13
2022-11-19T08:50:47.541Z,3.07
2022-11-19T08:53:20.282Z,3.30
2022-11-19T08:55:54.217Z,2.90
2022-11-19T08:58:24.450Z,3.60
2022-11-19T09:00:54.504Z,3.50
2022-11-19T09:03:24.609Z,2.80
2022-11-19T09:06:02.037Z,4.37
2022-11-19T09:08:35.577Z,4.63
2022-11-19T09:11:10.310Z,3.50
2022-11-19T09:13:41.999Z,3.40
2022-11-19T09:16:13.559Z,4.13
2022-11-19T09:18:43.923Z,3.70
2022-11-19T09:21:15.277Z,2.93
2022-11-19T09:23:47.903Z,3.03
2022-11-19T09:26:20.934Z,2.70
2022-11-19T09:28:51.138Z,2.53
2022-11-19T09:31:23.066Z,1.90
2022-11-19T09:33:55.427Z,1.77
2022-11-19T09:36:25.737Z,1.57
2022-11-19T09:39:02.271Z,1.93
2022-11-19T09:41:46.950Z,1.63
2022-11-19T09:44:42.931Z,2.13
2022-11-19T09:47:29.852Z,2.10
2022-11-19T09:50:15.958Z,1.97
2022-11-19T09:52:52.029Z,1.83
2022-11-19T09:55:33.945Z,1.83
2022-11-19T09:58:08.813Z,2.13
2022-11-19T10:00:39.543Z,1.73
2022-11-19T10:03:17.697Z,2.10
2022-11-19T10:06:12.984Z,1.80
2022-11-19T10:09:05.660Z,2.00
2022-11-19T10:11:56.797Z,1.93
2022-11-19T10:15:02.661Z,2.20
2022-11-19T10:17:48.292Z,2.70
2022-11-19T10:20:55.964Z,2.87
2022-11-19T10:23:34.090Z,2.80
2022-11-19T10:26:13.720Z,2.83
2022-11-19T10:28:56.234Z,1.90
2022-11-19T10:31:38.175Z,2.17
2022-11-19T10:34:19.299Z,2.70
2022-11-19T10:36:56.466Z,2.67
2022-11-19T10:39:36.474Z,2.50
2022-11-19T10:42:20.772Z,3.23
2022-11-19T10:45:00.833Z,3.37
2022-11-19T10:47:40.206Z,2.50
2022-11-19T10:50:19.578Z,1.83
2022-11-19T10:52:55.823Z,2.43
2022-11-19T10:55:34.138Z,2.70
2022-11-19T10:58:16.755Z,1.77
2022-11-19T11:00:50.752Z,2.17
2022-11-19T11:03:28.188Z,2.63
2022-11-19T11:06:06.444Z,2.40
2022-11-19T11:08:49.596Z,1.87
2022-11-19T11:11:48.943Z,2.37
2022-11-19T11:14:34.242Z,2.63
2022-11-19T11:17:19.218Z,2.73
2022-11-19T11:20:01.163Z,2.50
2022-11-19T11:22:31.980Z,2.53
2022-11-19T11:25:07.296Z,3.10
2022-11-19T11:27:38.844Z,2.40
2022-11-19T11:30:26.645Z,2.50
2022-11-19T11:32:59.358Z,2.23
2022-11-19T11:35:35.637Z,3.10
2022-11-19T11:38:07.929Z,2.37
2022-11-19T11:40:38.506Z,1.83
2022-11-19T11:43:08.908Z,1.60
2022-11-19T11:45:40.973Z,1.83
2022-11-19T11:48:24.396Z,2.30
2022-11-19T11:50:54.604Z,2.17
2022-11-19T11:53:35.127Z,2.90
2022-11-19T11:56:05.941Z,2.03
2022-11-19T11:58:37.392Z,2.50
2022-11-19T12:01:18.371Z,3.00
2022-11-19T12:04:01.929Z,1.90
2022-11-19T12:06:44.879Z,1.90
2022-11-19T12:09:29.110Z,1.70
2022-11-19T12:12:06.871Z,1.77
2022-11-19T12:14:48.108Z,1.77
2022-11-19T12:17:33.400Z,1.90
2022-11-19T12:20:29.632Z,2.30
2022-11-19T12:23:28.396Z,1.60
2022-11-19T12:26:16.518Z,1.17
2022-11-19T12:29:08.911Z,1.60
2022-11-19T12:32:07.668Z,1.60
2022-11-19T12:34:57.712Z,1.67
2022-11-19T12:37:49.606Z,1.40
2022-11-19T12:40:39.661Z,2.10
2022-11-19T12:43:31.622Z,1.50
2022-11-19T12:46:13.285Z,2.10
2022-11-19T12:49:06.544Z,1.47
2022-11-19T12:51:54.627Z,2.10
2022-11-19T12:54:56.661Z,2.93
2022-11-19T12:57:46.700Z,1.47
2022-11-19T13:00:21.624Z,1.73
2022-11-19T13:03:05.516Z,1.63
2022-11-19T13:05:46.392Z,2.37
2022-11-19T13:08:24.779Z,2.17
2022-11-19T13:11:10.098Z,2.23
2022-11-19T13:13:47.022Z,2.10
2022-11-19T13:16:21.072Z,2.40
2022-11-19T13:18:57.622Z,1.70
2022-11-19T13:21:38.450Z,2.47
2022-11-19T13:24:22.567Z,2.27
2022-11-19T13:26:59.028Z,2.10
2022-11-19T13:29:42.492Z,2.13
2022-11-19T13:32:25.670Z,1.50
2022-11-19T13:35:22.734Z,2.13
2022-11-19T13:38:03.233Z,2.20
2022-11-19T13:40:40.183Z,2.00
2022-11-19T13:43:33.293Z,2.03
2022-11-19T13:46:29.589Z,1.90
2022-11-19T13:49:06.248Z,1.80
2022-11-19T13:51:47.580Z,1.60
2022-11-19T13:54:28.361Z,2.20
2022-11-19T13:57:01.460Z,2.00
2022-11-19T13:59:41.712Z,3.10
2022-11-19T14:02:55.932Z,2.77
2022-11-19T14:06:18.638Z,5.30
2022-11-19T14:09:22.708Z,3.80
2022-11-19T14:12:26.544Z,2.80
2022-11-19T14:15:42.305Z,3.13
2022-11-19T14:18:40.223Z,3.20
2022-11-19T14:22:05.851Z,3.00
2022-11-19T14:25:11.450Z,2.30
2022-11-19T14:27:41.790Z,2.13
2022-11-19T14:30:21.468Z,2.20
2022-11-19T14:32:54.727Z,2.37
2022-11-19T14:35:47.047Z,2.10
2022-11-19T14:38:50.260Z,1.67
2022-11-19T14:41:35.718Z,2.33
2022-11-19T14:44:14.178Z,2.20
2022-11-19T14:46:50.927Z,3.17
2022-11-19T14:49:38.125Z,3.03
2022-11-19T14:52:25.327Z,2.37
2022-11-19T14:54:59.720Z,2.23
2022-11-19T14:57:35.443Z,2.67
2022-11-19T15:00:10.611Z,2.53
2022-11-19T15:02:48.252Z,2.53
2022-11-19T15:05:23.582Z,2.90
2022-11-19T15:08:15.034Z,3.40
2022-11-19T15:11:07.278Z,3.10
2022-11-19T15:13:39.298Z,3.30
2022-11-19T15:16:17.431Z,3.20
2022-11-19T15:19:29.035Z,2.77
2022-11-19T15:22:38.100Z,2.40
2022-11-19T15:25:30.982Z,2.97
2022-11-19T15:28:47.124Z,3.30
2022-11-19T15:31:46.292Z,3.40
2022-11-19T15:35:09.785Z,4.30
2022-11-19T15:37:51.347Z,4.10
2022-11-19T15:40:29.024Z,3.63
2022-11-19T15:43:14.796Z,3.80
2022-11-19T15:45:52.864Z,4.30
2022-11-19T15:48:34.043Z,3.60
2022-11-19T15:51:09.502Z,3.83
2022-11-19T15:53:39.801Z,3.87
2022-11-19T15:56:15.348Z,5.73
2022-11-19T15:58:50.444Z,3.17
2022-11-19T16:01:23.341Z,5.33
2022-11-19T16:03:56.539Z,5.50
2022-11-19T16:06:31.980Z,5.17
2022-11-19T16:09:06.690Z,5.20
2022-11-19T16:11:53.346Z,5.27
2022-11-19T16:14:38.555Z,6.43
2022-11-19T16:17:28.344Z,5.30
2022-11-19T16:20:20.917Z,4.27
2022-11-19T16:23:00.714Z,5.17
2022-11-19T16:25:37.379Z,4.23
2022-11-19T16:28:13.285Z,4.10
2022-11-19T16:30:48.573Z,5.10
2022-11-19T16:33:23.141Z,6.10
2022-11-19T16:35:55.880Z,5.50
2022-11-19T16:38:30.953Z,7.50
2022-11-19T16:41:13.753Z,8.23
2022-11-19T16:43:48.885Z,6.97
2022-11-19T16:46:24.373Z,7.37
2022-11-19T16:49:00.586Z,8.00
2022-11-19T16:51:38.353Z,8.27
2022-11-19T16:54:13.232Z,8.47
2022-11-19T16:56:47.865Z,7.80
2022-11-19T16:59:24.424Z,8.40
2022-11-19T17:01:59.711Z,7.60
2022-11-19T17:04:34.378Z,8.90
2022-11-19T17:07:04.627Z,8.50
2022-11-19T17:09:45.321Z,7.90
2022-11-19T17:12:28.615Z,9.50
2022-11-19T17:15:01.678Z,8.20
2022-11-19T17:17:41.456Z,8.83
2022-11-19T17:21:02.208Z,9.17
2022-11-19T17:23:35.540Z,8.50
2022-11-19T17:26:12.033Z,11.93
2022-11-19T17:28:46.745Z,9.97
2022-11-19T17:31:23.482Z,9.87
2022-11-19T17:33:57.264Z,10.97
2022-11-19T17:36:28.535Z,10.80
2022-11-19T17:38:59.051Z,10.10
2022-11-19T17:41:44.906Z,9.20
2022-11-19T17:44:35.015Z,9.40
2022-11-19T17:47:13.540Z,9.13
2022-11-19T17:49:51.599Z,10.13
2022-11-19T17:52:28.067Z,8.90
2022-11-19T17:55:01.543Z,9.80
2022-11-19T17:57:41.155Z,16.77
2022-11-19T18:00:14.885Z,10.97
2022-11-19T18:02:44.958Z,12.93
2022-11-19T18:05:23.185Z,11.47
2022-11-19T18:07:53.360Z,9.83
2022-11-19T18:10:23.441Z,9.70
2022-11-19T18:12:56.308Z,10.90
2022-11-19T18:15:26.497Z,10.13
2022-11-19T18:17:59.761Z,8.97
2022-11-19T18:20:29.864Z,11.27
2022-11-19T18:23:00.313Z,11.27
2022-11-19T18:25:30.698Z,21.70
2022-11-19T18:28:03.604Z,12.30
2022-11-19T18:30:33.786Z,10.87
2022-11-19T18:33:03.912Z,14.37
2022-11-19T18:35:33.958Z,11.77
2022-11-19T18:38:04.511Z,11.93
2022-11-19T18:40:34.757Z,11.37
2022-11-19T18:43:19.873Z,12.03
2022-11-19T18:45:50.112Z,11.13
2022-11-19T18:48:20.421Z,12.20
2022-11-19T18:50:50.482Z,13.23
2022-11-19T18:53:20.540Z,15.60
2022-11-19T18:55:51.072Z,16.77
2022-11-19T18:58:23.684Z,18.23
2022-11-19T19:00:55.589Z,15.00
2022-11-19T19:03:25.783Z,12.20
2022-11-19T19:05:55.937Z,13.33
2022-11-19T19:08:26.239Z,12.30
2022-11-19T19:11:16.607Z,11.40
2022-11-19T19:13:47.264Z,10.27
2022-11-19T19:16:17.549Z,16.83
2022-11-19T19:18:47.732Z,13.67
2022-11-19T19:21:21.330Z,11.50
2022-11-19T19:23:52.495Z,8.93
2022-11-19T19:26:24.220Z,9.13
2022-11-19T19:28:57.936Z,9.40
2022-11-19T19:31:28.271Z,8.87
2022-11-19T19:33:58.573Z,8.93
2022-11-19T19:36:29.168Z,9.47
2022-11-19T19:38:59.431Z,8.77
2022-11-19T19:41:30.726Z,9.60
2022-11-19T19:44:07.058Z,8.00
2022-11-19T19:46:37.812Z,8.77
2022-11-19T19:49:08.023Z,9.43
2022-11-19T19:51:38.163Z,8.00
2022-11-19T19:54:08.606Z,7.67
2022-11-19T19:56:38.875Z,9.10
2022-11-19T19:59:15.597Z,9.67
2022-11-19T20:01:50.939Z,9.67
2022-11-19T20:04:22.255Z,9.60
2022-11-19T20:06:52.682Z,9.50
2022-11-19T20:09:23.284Z,9.20
2022-11-19T20:11:53.632Z,10.50
2022-11-19T20:14:26.828Z,10.30
2022-11-19T20:16:56.844Z,8.20
2022-11-19T20:19:27.044Z,9.63
2022-11-19T20:21:57.160Z,9.93
2022-11-19T20:24:27.281Z,10.00
2022-11-19T20:26:57.378Z,9.40
2022-11-19T20:29:30.092Z,12.17
2022-11-19T20:32:00.108Z,13.63
2022-11-19T20:34:30.153Z,11.90
2022-11-19T20:37:00.311Z,10.17
2022-11-19T20:39:30.431Z,9.37
2022-11-19T20:42:12.948Z,10.90
2022-11-19T20:44:45.618Z,10.03
2022-11-19T20:47:15.593Z,8.60
2022-11-19T20:49:45.602Z,9.57
2022-11-19T20:52:17.244Z,8.90
2022-11-19T20:54:48.071Z,9.17
2022-11-19T20:57:18.884Z,7.47
2022-11-19T20:59:51.732Z,9.60
2022-11-19T21:02:21.909Z,8.73
2022-11-19T21:04:52.140Z,10.73
2022-11-19T21:07:22.934Z,9.20
2022-11-19T21:09:53.097Z,10.53
2022-11-19T21:12:24.008Z,8.37
2022-11-19T21:14:56.904Z,9.07
2022-11-19T21:17:27.041Z,9.20
2022-11-19T21:19:57.217Z,7.83
2022-11-19T21:22:27.323Z,8.40
2022-11-19T21:24:57.399Z,6.30
2022-11-19T21:27:27.475Z,7.00
2022-11-19T21:30:00.126Z,7.13
2022-11-19T21:32:30.186Z,8.83
2022-11-19T21:35:00.321Z,8.20
2022-11-19T21:37:30.635Z,8.23
2022-11-19T21:40:00.695Z,8.07
2022-11-19T21:42:32.054Z,7.67
2022-11-19T21:45:04.751Z,7.63
2022-11-19T21:47:34.903Z,7.03
2022-11-19T21:50:04.962Z,7.37
2022-11-19T21:52:35.035Z,11.23
2022-11-19T21:55:05.084Z,12.07
2022-11-19T21:57:35.183Z,13.73
2022-11-19T22:00:10.530Z,13.67
2022-11-19T22:02:42.985Z,13.97
2022-11-19T22:05:13.278Z,15.30
2022-11-19T22:07:46.331Z,13.20
2022-11-19T22:10:16.916Z,12.20
2022-11-19T22:12:47.356Z,13.83
2022-11-19T22:15:20.206Z,14.83
2022-11-19T22:17:50.505Z,13.27
2022-11-19T22:20:20.763Z,14.23
2022-11-19T22:22:50.806Z,11.87
2022-11-19T22:25:21.300Z,9.93
2022-11-19T22:27:51.377Z,9.20
2022-11-19T22:30:24.057Z,8.10
2022-11-19T22:32:56.087Z,7.30
2022-11-19T22:35:26.124Z,8.40
2022-11-19T22:37:56.157Z,7.03
2022-11-19T22:40:26.181Z,7.70
2022-11-19T22:42:56.211Z,6.30
2022-11-19T22:45:28.904Z,6.90
2022-11-19T22:47:58.962Z,5.57
2022-11-19T22:50:29.034Z,7.10
2022-11-19T22:52:59.034Z,7.13
2022-11-19T22:55:29.083Z,5.77
2022-11-19T22:57:59.393Z,6.67
2022-11-19T23:00:48.097Z,6.63
2022-11-19T23:03:20.716Z,6.03
2022-11-19T23:05:53.879Z,9.30
2022-11-19T23:08:24.972Z,6.93
2022-11-19T23:11:01.474Z,7.23
2022-11-19T23:13:34.348Z,6.03
2022-11-19T23:16:11.001Z,7.10
2022-11-19T23:18:43.969Z,7.80
2022-11-19T23:21:17.598Z,7.20
2022-11-19T23:23:48.072Z,7.10
2022-11-19T23:26:22.144Z,6.70
2022-11-19T23:28:52.727Z,8.40
2022-11-19T23:31:28.408Z,6.63
2022-11-19T23:33:59.861Z,6.00
2022-11-19T23:36:32.308Z,7.37
2022-11-19T23:39:02.941Z,6.93
2022-11-19T23:41:35.972Z,6.40
2022-11-19T23:44:06.304Z,6.60
2022-11-19T23:46:39.784Z,6.07
2022-11-19T23:49:10.174Z,6.43
2022-11-19T23:51:41.892Z,7.40
2022-11-19T23:54:16.351Z,6.73
2022-11-19T23:56:46.623Z,6.00
2022-11-19T23:59:18.602Z,6.73
